sensor_id;sensor_type;location;lat;lon;timestamp;pressure;altitude;pressure_sealevel;temperature;humidity
7105;BME280;3594;42.152;24.714;2023-02-02T00:01:28;-23918.81;;;3.67;93.56
7105;BME280;3594;42.152;24.714;2023-02-02T00:03:53;-23925.81;;;3.92;92.13
7105;BME280;3594;42.152;24.714;2023-02-02T00:06:21;-23915.41;;;3.55;91.59
7105;BME280;3594;42.152;24.714;2023-02-02T00:08:47;-23919.25;;;3.69;90.43
7105;BME280;3594;42.152;24.714;2023-02-02T00:11:14;-23924.09;;;3.86;88.93
7105;BME280;3594;42.152;24.714;2023-02-02T00:13:40;-23930.06;;;4.07;88.84
7105;BME280;3594;42.152;24.714;2023-02-02T00:19:00;-23936.34;;;4.29;89.38
7105;BME280;3594;42.152;24.714;2023-02-02T00:21:26;-23931.50;;;4.12;89.49
7105;BME280;3594;42.152;24.714;2023-02-02T00:23:52;-23939.91;;;4.42;90.64
7105;BME280;3594;42.152;24.714;2023-02-02T00:26:18;-23932.94;;;4.17;92.81
7105;BME280;3594;42.152;24.714;2023-02-02T00:28:44;-23927.66;;;3.98;94.17
7105;BME280;3594;42.152;24.714;2023-02-02T00:31:09;-23918.69;;;3.67;94.17
7105;BME280;3594;42.152;24.714;2023-02-02T00:33:35;-23922.09;;;3.79;94.49
7105;BME280;3594;42.152;24.714;2023-02-02T00:36:00;-23920.53;;;3.73;95.76
7105;BME280;3594;42.152;24.714;2023-02-02T00:38:26;-23915.97;;;3.57;94.20
7105;BME280;3594;42.152;24.714;2023-02-02T00:40:51;-23909.84;;;3.35;94.63
7105;BME280;3594;42.152;24.714;2023-02-02T00:43:16;-23921.25;;;3.76;93.05
7105;BME280;3594;42.152;24.714;2023-02-02T00:45:42;-23907.72;;;3.28;92.90
7105;BME280;3594;42.152;24.714;2023-02-02T00:48:07;-23913.41;;;3.48;93.22
7105;BME280;3594;42.152;24.714;2023-02-02T00:50:35;-23925.81;;;3.92;91.77
7105;BME280;3594;42.152;24.714;2023-02-02T00:53:01;-23921.81;;;3.78;90.61
7105;BME280;3594;42.152;24.714;2023-02-02T00:55:26;-23930.50;;;4.09;90.84
7105;BME280;3594;42.152;24.714;2023-02-02T00:57:52;-23929.09;;;4.04;91.59
7105;BME280;3594;42.152;24.714;2023-02-02T01:00:21;-23932.06;;;4.14;90.63
7105;BME280;3594;42.152;24.714;2023-02-02T01:02:51;-23919.41;;;3.69;91.84
7105;BME280;3594;42.152;24.714;2023-02-02T01:05:17;-23931.50;;;4.12;90.77
7105;BME280;3594;42.152;24.714;2023-02-02T01:07:43;-23928.38;;;4.01;90.90
7105;BME280;3594;42.152;24.714;2023-02-02T01:12:41;-23927.66;;;3.98;91.14
7105;BME280;3594;42.152;24.714;2023-02-02T01:15:07;-23926.66;;;3.95;93.24
7105;BME280;3594;42.152;24.714;2023-02-02T01:17:33;-23917.53;;;3.63;94.24
7105;BME280;3594;42.152;24.714;2023-02-02T01:19:58;-23906.84;;;3.25;95.14
7105;BME280;3594;42.152;24.714;2023-02-02T01:22:24;-23913.25;;;3.47;93.66
7105;BME280;3594;42.152;24.714;2023-02-02T01:24:50;-23926.22;;;3.93;94.10
7105;BME280;3594;42.152;24.714;2023-02-02T01:27:15;-23927.50;;;3.98;93.30
7105;BME280;3594;42.152;24.714;2023-02-02T01:29:41;-23925.22;;;3.90;93.68
7105;BME280;3594;42.152;24.714;2023-02-02T01:32:06;-23926.81;;;3.95;93.93
7105;BME280;3594;42.152;24.714;2023-02-02T01:34:32;-23921.25;;;3.76;95.07
7105;BME280;3594;42.152;24.714;2023-02-02T01:36:57;-23916.53;;;3.59;95.51
7105;BME280;3594;42.152;24.714;2023-02-02T01:39:23;-23920.81;;;3.74;96.26
7105;BME280;3594;42.152;24.714;2023-02-02T01:41:48;-23909.56;;;3.34;96.04
7105;BME280;3594;42.152;24.714;2023-02-02T01:47:18;-23910.13;;;3.36;100.00
7105;BME280;3594;42.152;24.714;2023-02-02T01:49:45;-23909.84;;;3.35;100.00
7105;BME280;3594;42.152;24.714;2023-02-02T01:52:13;-23912.56;;;3.45;99.41
7105;BME280;3594;42.152;24.714;2023-02-02T01:54:41;-23913.69;;;3.49;98.05
7105;BME280;3594;42.152;24.714;2023-02-02T01:57:21;-23907.72;;;3.28;97.31
7105;BME280;3594;42.152;24.714;2023-02-02T01:59:48;-23917.53;;;3.63;98.38
7105;BME280;3594;42.152;24.714;2023-02-02T02:02:14;-23904.00;;;3.15;99.28
7105;BME280;3594;42.152;24.714;2023-02-02T02:04:40;-23911.84;;;3.42;100.00
7105;BME280;3594;42.152;24.714;2023-02-02T02:07:06;-23902.72;;;3.10;100.00
7105;BME280;3594;42.152;24.714;2023-02-02T02:09:33;-23920.09;;;3.72;98.63
7105;BME280;3594;42.152;24.714;2023-02-02T02:11:58;-23915.25;;;3.54;100.00
7105;BME280;3594;42.152;24.714;2023-02-02T02:14:24;-23905.56;;;3.20;100.00
7105;BME280;3594;42.152;24.714;2023-02-02T02:20:01;-23902.28;;;3.08;100.00
7105;BME280;3594;42.152;24.714;2023-02-02T02:37:57;-23903.28;;;3.12;100.00
7105;BME280;3594;42.152;24.714;2023-02-02T02:43:02;-23896.88;;;2.89;100.00
7105;BME280;3594;42.152;24.714;2023-02-02T02:45:31;-23893.16;;;2.76;100.00
7105;BME280;3594;42.152;24.714;2023-02-02T02:47:57;-23904.72;;;3.17;100.00
7105;BME280;3594;42.152;24.714;2023-02-02T02:50:23;-23901.72;;;3.06;100.00
7105;BME280;3594;42.152;24.714;2023-02-02T02:52:55;-23905.41;;;3.20;100.00
7105;BME280;3594;42.152;24.714;2023-02-02T02:55:22;-23899.16;;;2.97;100.00
7105;BME280;3594;42.152;24.714;2023-02-02T02:58:15;-23912.41;;;3.44;100.00
7105;BME280;3594;42.152;24.714;2023-02-02T03:01:09;-23910.69;;;3.38;100.00
7105;BME280;3594;42.152;24.714;2023-02-02T03:03:52;-23907.00;;;3.25;100.00
7105;BME280;3594;42.152;24.714;2023-02-02T03:06:40;-23920.53;;;3.73;100.00
7105;BME280;3594;42.152;24.714;2023-02-02T03:09:11;-23918.41;;;3.66;100.00
7105;BME280;3594;42.152;24.714;2023-02-02T03:11:39;-23910.13;;;3.36;99.75
7105;BME280;3594;42.152;24.714;2023-02-02T03:14:05;-23923.53;;;3.84;99.38
7105;BME280;3594;42.152;24.714;2023-02-02T03:16:34;-23921.69;;;3.77;98.89
7105;BME280;3594;42.152;24.714;2023-02-02T03:19:00;-23912.69;;;3.45;98.97
7105;BME280;3594;42.152;24.714;2023-02-02T03:21:26;-23910.56;;;3.38;98.88
7105;BME280;3594;42.152;24.714;2023-02-02T03:23:51;-23926.22;;;3.93;98.46
7105;BME280;3594;42.152;24.714;2023-02-02T03:26:17;-23924.94;;;3.89;98.08
7105;BME280;3594;42.152;24.714;2023-02-02T03:28:42;-23927.09;;;3.96;97.22
7105;BME280;3594;42.152;24.714;2023-02-02T03:31:08;-23922.97;;;3.82;95.75
7105;BME280;3594;42.152;24.714;2023-02-02T03:33:35;-23926.66;;;3.95;95.28
7105;BME280;3594;42.152;24.714;2023-02-02T03:36:01;-23930.94;;;4.10;95.12
7105;BME280;3594;42.152;24.714;2023-02-02T03:38:27;-23924.81;;;3.88;94.21
7105;BME280;3594;42.152;24.714;2023-02-02T03:40:52;-23936.19;;;4.29;93.22
7105;BME280;3594;42.152;24.714;2023-02-02T03:43:21;-23935.63;;;4.27;93.23
7105;BME280;3594;42.152;24.714;2023-02-02T03:45:46;-23930.22;;;4.08;93.89
7105;BME280;3594;42.152;24.714;2023-02-02T03:48:12;-23934.34;;;4.22;94.25
7105;BME280;3594;42.152;24.714;2023-02-02T03:50:37;-23929.78;;;4.06;94.21
7105;BME280;3594;42.152;24.714;2023-02-02T03:53:03;-23936.91;;;4.31;93.49
7105;BME280;3594;42.152;24.714;2023-02-02T03:55:29;-23939.75;;;4.41;93.02
7105;BME280;3594;42.152;24.714;2023-02-02T03:57:54;-23917.81;;;3.64;93.98
7105;BME280;3594;42.152;24.714;2023-02-02T04:00:20;-23928.22;;;4.00;94.39
7105;BME280;3594;42.152;24.714;2023-02-02T04:02:45;-23924.66;;;3.88;94.00
7105;BME280;3594;42.152;24.714;2023-02-02T04:05:11;-23931.94;;;4.14;93.76
7105;BME280;3594;42.152;24.714;2023-02-02T04:07:36;-23915.97;;;3.57;93.22
7105;BME280;3594;42.152;24.714;2023-02-02T04:10:02;-23936.19;;;4.29;94.18
7105;BME280;3594;42.152;24.714;2023-02-02T04:12:28;-23931.34;;;4.12;93.88
7105;BME280;3594;42.152;24.714;2023-02-02T04:14:53;-23927.50;;;3.98;94.16
7105;BME280;3594;42.152;24.714;2023-02-02T04:17:19;-23926.09;;;3.93;95.01
7105;BME280;3594;42.152;24.714;2023-02-02T04:19:44;-23923.94;;;3.85;95.31
7105;BME280;3594;42.152;24.714;2023-02-02T04:22:09;-23927.94;;;3.99;96.37
7105;BME280;3594;42.152;24.714;2023-02-02T04:24:35;-23917.25;;;3.62;96.46
7105;BME280;3594;42.152;24.714;2023-02-02T04:27:00;-23925.22;;;3.90;96.36
7105;BME280;3594;42.152;24.714;2023-02-02T04:29:25;-23921.81;;;3.78;96.37
7105;BME280;3594;42.152;24.714;2023-02-02T04:31:51;-23914.13;;;3.50;96.02
7105;BME280;3594;42.152;24.714;2023-02-02T04:34:16;-23917.41;;;3.62;97.00
7105;BME280;3594;42.152;24.714;2023-02-02T04:36:42;-23917.81;;;3.64;97.96
7105;BME280;3594;42.152;24.714;2023-02-02T04:39:10;-23912.84;;;3.46;98.24
7105;BME280;3594;42.152;24.714;2023-02-02T04:41:35;-23905.41;;;3.20;98.96
7105;BME280;3594;42.152;24.714;2023-02-02T04:44:01;-23900.44;;;3.02;99.98
7105;BME280;3594;42.152;24.714;2023-02-02T04:46:26;-23908.72;;;3.31;99.38
7105;BME280;3594;42.152;24.714;2023-02-02T04:48:52;-23904.72;;;3.17;100.00
7105;BME280;3594;42.152;24.714;2023-02-02T04:51:18;-23897.00;;;2.90;99.95
7105;BME280;3594;42.152;24.714;2023-02-02T04:53:43;-23898.59;;;2.95;100.00
7105;BME280;3594;42.152;24.714;2023-02-02T04:56:17;-23897.28;;;2.91;100.00
7105;BME280;3594;42.152;24.714;2023-02-02T04:58:44;-23898.44;;;2.95;100.00
7105;BME280;3594;42.152;24.714;2023-02-02T05:01:10;-23901.28;;;3.05;100.00
7105;BME280;3594;42.152;24.714;2023-02-02T05:03:36;-23892.03;;;2.72;100.00
7105;BME280;3594;42.152;24.714;2023-02-02T05:06:03;-23890.88;;;2.68;100.00
7105;BME280;3594;42.152;24.714;2023-02-02T05:08:29;-23892.72;;;2.75;100.00
7105;BME280;3594;42.152;24.714;2023-02-02T05:10:54;-23893.59;;;2.78;100.00
7105;BME280;3594;42.152;24.714;2023-02-02T05:13:20;-23898.72;;;2.96;100.00
7105;BME280;3594;42.152;24.714;2023-02-02T05:15:45;-23906.44;;;3.23;100.00
7105;BME280;3594;42.152;24.714;2023-02-02T05:18:11;-23906.84;;;3.25;100.00
7105;BME280;3594;42.152;24.714;2023-02-02T05:20:37;-23891.59;;;2.71;100.00
7105;BME280;3594;42.152;24.714;2023-02-02T05:23:02;-23908.41;;;3.30;99.23
7105;BME280;3594;42.152;24.714;2023-02-02T05:25:28;-23904.84;;;3.18;99.02
7105;BME280;3594;42.152;24.714;2023-02-02T05:27:53;-23911.56;;;3.41;98.73
7105;BME280;3594;42.152;24.714;2023-02-02T05:30:19;-23900.16;;;3.01;99.58
7105;BME280;3594;42.152;24.714;2023-02-02T05:32:44;-23902.28;;;3.08;99.23
7105;BME280;3594;42.152;24.714;2023-02-02T05:35:10;-23907.56;;;3.27;99.20
7105;BME280;3594;42.152;24.714;2023-02-02T05:37:35;-23909.00;;;3.32;100.00
7105;BME280;3594;42.152;24.714;2023-02-02T05:40:02;-23900.00;;;3.00;99.18
7105;BME280;3594;42.152;24.714;2023-02-02T05:42:28;-23902.44;;;3.09;100.00
7105;BME280;3594;42.152;24.714;2023-02-02T05:44:53;-23886.16;;;2.51;100.00
7105;BME280;3594;42.152;24.714;2023-02-02T05:47:19;-23886.88;;;2.54;100.00
7105;BME280;3594;42.152;24.714;2023-02-02T05:49:44;-23899.44;;;2.98;100.00
7105;BME280;3594;42.152;24.714;2023-02-02T05:52:18;-23888.44;;;2.59;100.00
7105;BME280;3594;42.152;24.714;2023-02-02T05:54:45;-23886.31;;;2.52;100.00
7105;BME280;3594;42.152;24.714;2023-02-02T05:57:10;-23893.31;;;2.77;100.00
7105;BME280;3594;42.152;24.714;2023-02-02T05:59:35;-23885.59;;;2.49;100.00
7105;BME280;3594;42.152;24.714;2023-02-02T06:02:01;-23887.59;;;2.56;100.00
7105;BME280;3594;42.152;24.714;2023-02-02T06:04:26;-23902.28;;;3.08;100.00
7105;BME280;3594;42.152;24.714;2023-02-02T06:06:52;-23893.88;;;2.79;100.00
7105;BME280;3594;42.152;24.714;2023-02-02T06:09:17;-23899.28;;;2.98;100.00
7105;BME280;3594;42.152;24.714;2023-02-02T06:11:43;-23894.72;;;2.82;100.00
7105;BME280;3594;42.152;24.714;2023-02-02T06:14:09;-23912.84;;;3.46;100.00
7105;BME280;3594;42.152;24.714;2023-02-02T06:16:35;-23902.28;;;3.08;100.00
7105;BME280;3594;42.152;24.714;2023-02-02T06:19:00;-23914.69;;;3.52;99.82
7105;BME280;3594;42.152;24.714;2023-02-02T06:21:26;-23920.69;;;3.74;99.84
7105;BME280;3594;42.152;24.714;2023-02-02T06:23:55;-23910.69;;;3.38;99.77
7105;BME280;3594;42.152;24.714;2023-02-02T06:26:21;-23911.69;;;3.42;98.83
7105;BME280;3594;42.152;24.714;2023-02-02T06:28:48;-23920.97;;;3.75;98.38
7105;BME280;3594;42.152;24.714;2023-02-02T06:31:14;-23922.38;;;3.80;98.87
7105;BME280;3594;42.152;24.714;2023-02-02T06:33:44;-23928.66;;;4.02;97.33
7105;BME280;3594;42.152;24.714;2023-02-02T06:36:10;-23919.53;;;3.70;97.38
7105;BME280;3594;42.152;24.714;2023-02-02T06:38:35;-23919.53;;;3.70;96.69
7105;BME280;3594;42.152;24.714;2023-02-02T06:41:02;-23932.63;;;4.16;96.18
7105;BME280;3594;42.152;24.714;2023-02-02T06:43:28;-23934.50;;;4.23;97.03
7105;BME280;3594;42.152;24.714;2023-02-02T06:45:56;-23933.63;;;4.20;97.34
7105;BME280;3594;42.152;24.714;2023-02-02T06:48:22;-23945.47;;;4.62;95.59
7105;BME280;3594;42.152;24.714;2023-02-02T06:50:47;-23951.16;;;4.82;93.30
7105;BME280;3594;42.152;24.714;2023-02-02T06:53:12;-23954.13;;;4.93;92.20
7105;BME280;3594;42.152;24.714;2023-02-02T06:55:38;-23946.31;;;4.65;91.67
7105;BME280;3594;42.152;24.714;2023-02-02T06:58:03;-23950.56;;;4.80;90.26
7105;BME280;3594;42.152;24.714;2023-02-02T07:00:29;-23960.53;;;5.15;89.53
7105;BME280;3594;42.152;24.714;2023-02-02T07:02:55;-23966.50;;;5.37;89.34
7105;BME280;3594;42.152;24.714;2023-02-02T07:05:20;-23957.69;;;5.05;89.31
7105;BME280;3594;42.152;24.714;2023-02-02T07:07:49;-23968.63;;;5.44;89.19
7105;BME280;3594;42.152;24.714;2023-02-02T07:10:15;-23968.34;;;5.43;90.03
7105;BME280;3594;42.152;24.714;2023-02-02T07:12:41;-23962.81;;;5.23;88.36
7105;BME280;3594;42.152;24.714;2023-02-02T07:15:07;-23969.06;;;5.46;89.38
7105;BME280;3594;42.152;24.714;2023-02-02T07:17:32;-23977.59;;;5.76;88.57
7105;BME280;3594;42.152;24.714;2023-02-02T07:19:58;-23974.31;;;5.64;85.50
7105;BME280;3594;42.152;24.714;2023-02-02T07:22:23;-23981.28;;;5.89;85.73
7105;BME280;3594;42.152;24.714;2023-02-02T07:24:49;-23988.41;;;6.14;83.99
7105;BME280;3594;42.152;24.714;2023-02-02T07:27:14;-23991.38;;;6.25;84.00
7105;BME280;3594;42.152;24.714;2023-02-02T07:29:40;-23992.38;;;6.29;83.13
7105;BME280;3594;42.152;24.714;2023-02-02T07:32:05;-24006.84;;;6.80;81.66
7105;BME280;3594;42.152;24.714;2023-02-02T07:34:30;-24006.72;;;6.80;79.20
7105;BME280;3594;42.152;24.714;2023-02-02T07:36:56;-24021.03;;;7.31;79.09
7105;BME280;3594;42.152;24.714;2023-02-02T07:39:22;-24021.88;;;7.34;78.90
7105;BME280;3594;42.152;24.714;2023-02-02T07:41:47;-24017.06;;;7.17;78.58
7105;BME280;3594;42.152;24.714;2023-02-02T07:44:15;-24028.41;;;7.57;77.80
7105;BME280;3594;42.152;24.714;2023-02-02T07:46:44;-24021.88;;;7.34;77.89
7105;BME280;3594;42.152;24.714;2023-02-02T07:49:12;-24033.50;;;7.75;77.25
7105;BME280;3594;42.152;24.714;2023-02-02T07:51:38;-24052.47;;;8.43;75.86
7105;BME280;3594;42.152;24.714;2023-02-02T07:54:04;-24056.31;;;8.57;75.59
7105;BME280;3594;42.152;24.714;2023-02-02T07:56:29;-24057.44;;;8.61;74.96
7105;BME280;3594;42.152;24.714;2023-02-02T07:58:55;-24025.56;;;7.47;73.74
7105;BME280;3594;42.152;24.714;2023-02-02T08:01:21;-24053.34;;;8.46;74.01
7105;BME280;3594;42.152;24.714;2023-02-02T08:03:48;-24044.56;;;8.15;74.85
7105;BME280;3594;42.152;24.714;2023-02-02T08:06:25;-24042.28;;;8.07;75.90
7105;BME280;3594;42.152;24.714;2023-02-02T08:08:53;-24038.75;;;7.94;75.82
7105;BME280;3594;42.152;24.714;2023-02-02T08:11:20;-24044.97;;;8.16;75.29
7105;BME280;3594;42.152;24.714;2023-02-02T08:13:52;-24044.97;;;8.16;74.44
7105;BME280;3594;42.152;24.714;2023-02-02T08:16:18;-24059.00;;;8.66;73.70
7105;BME280;3594;42.152;24.714;2023-02-02T08:18:44;-24056.72;;;8.58;71.31
7105;BME280;3594;42.152;24.714;2023-02-02T08:21:10;-24061.53;;;8.75;71.28
7105;BME280;3594;42.152;24.714;2023-02-02T08:23:37;-24052.47;;;8.43;71.72
7105;BME280;3594;42.152;24.714;2023-02-02T08:26:12;-24056.16;;;8.56;71.96
7105;BME280;3594;42.152;24.714;2023-02-02T08:28:39;-24048.09;;;8.27;72.89
7105;BME280;3594;42.152;24.714;2023-02-02T08:31:07;-24049.94;;;8.34;73.04
7105;BME280;3594;42.152;24.714;2023-02-02T08:33:34;-24054.88;;;8.52;73.19
7105;BME280;3594;42.152;24.714;2023-02-02T08:35:59;-24055.59;;;8.54;73.34
7105;BME280;3594;42.152;24.714;2023-02-02T08:38:25;-24055.31;;;8.53;72.37
7105;BME280;3594;42.152;24.714;2023-02-02T08:40:50;-24068.03;;;8.99;71.70
7105;BME280;3594;42.152;24.714;2023-02-02T08:43:16;-24057.56;;;8.61;71.16
7105;BME280;3594;42.152;24.714;2023-02-02T08:45:42;-24071.31;;;9.10;68.95
7105;BME280;3594;42.152;24.714;2023-02-02T08:48:08;-24062.94;;;8.80;67.86
7105;BME280;3594;42.152;24.714;2023-02-02T08:50:33;-24059.28;;;8.67;68.26
7105;BME280;3594;42.152;24.714;2023-02-02T08:52:58;-24075.81;;;9.26;67.62
7105;BME280;3594;42.152;24.714;2023-02-02T08:55:24;-24069.19;;;9.03;67.92
7105;BME280;3594;42.152;24.714;2023-02-02T08:57:49;-24071.31;;;9.10;66.85
7105;BME280;3594;42.152;24.714;2023-02-02T09:00:15;-24084.03;;;9.56;67.07
7105;BME280;3594;42.152;24.714;2023-02-02T09:02:41;-24079.34;;;9.39;66.99
7105;BME280;3594;42.152;24.714;2023-02-02T09:05:06;-24091.50;;;9.83;66.35
7105;BME280;3594;42.152;24.714;2023-02-02T09:07:32;-24086.84;;;9.66;65.75
7105;BME280;3594;42.152;24.714;2023-02-02T09:09:57;-24097.59;;;10.04;65.13
7105;BME280;3594;42.152;24.714;2023-02-02T09:12:23;-24089.53;;;9.75;65.10
7105;BME280;3594;42.152;24.714;2023-02-02T09:14:49;-24102.09;;;10.21;64.51
7105;BME280;3594;42.152;24.714;2023-02-02T09:17:14;-24099.00;;;10.09;62.53
7105;BME280;3594;42.152;24.714;2023-02-02T09:19:40;-24104.50;;;10.29;63.38
7105;BME280;3594;42.152;24.714;2023-02-02T09:22:05;-24108.16;;;10.42;62.22
7105;BME280;3594;42.152;24.714;2023-02-02T09:24:31;-24104.50;;;10.29;63.07
7105;BME280;3594;42.152;24.714;2023-02-02T09:26:56;-24101.69;;;10.19;62.79
7105;BME280;3594;42.152;24.714;2023-02-02T09:29:21;-24107.88;;;10.41;60.97
7105;BME280;3594;42.152;24.714;2023-02-02T09:31:47;-24109.88;;;10.48;61.20
7105;BME280;3594;42.152;24.714;2023-02-02T09:34:14;-24116.22;;;10.71;59.98
7105;BME280;3594;42.152;24.714;2023-02-02T09:36:40;-24115.50;;;10.69;61.19
7105;BME280;3594;42.152;24.714;2023-02-02T09:39:06;-24119.59;;;10.83;61.34
7105;BME280;3594;42.152;24.714;2023-02-02T09:52:45;-24126.78;;;11.09;60.41
7105;BME280;3594;42.152;24.714;2023-02-02T09:58:00;-24126.50;;;11.08;61.04
7105;BME280;3594;42.152;24.714;2023-02-02T10:00:32;-24129.19;;;11.18;61.15
7105;BME280;3594;42.152;24.714;2023-02-02T10:03:05;-24127.91;;;11.13;59.91
7105;BME280;3594;42.152;24.714;2023-02-02T10:05:54;-24131.16;;;11.25;60.11
7105;BME280;3594;42.152;24.714;2023-02-02T10:08:33;-24130.47;;;11.22;59.41
7105;BME280;3594;42.152;24.714;2023-02-02T10:11:18;-24132.44;;;11.29;59.37
7105;BME280;3594;42.152;24.714;2023-02-02T10:13:49;-24145.81;;;11.77;58.37
7105;BME280;3594;42.152;24.714;2023-02-02T10:16:18;-24137.09;;;11.46;58.15
7105;BME280;3594;42.152;24.714;2023-02-02T10:23:50;-24144.13;;;11.71;57.92
7105;BME280;3594;42.152;24.714;2023-02-02T10:26:39;-24149.06;;;11.89;55.10
7105;BME280;3594;42.152;24.714;2023-02-02T10:34:41;-24147.09;;;11.82;54.33
7105;BME280;3594;42.152;24.714;2023-02-02T10:37:28;-24143.97;;;11.71;55.22
7105;BME280;3594;42.152;24.714;2023-02-02T10:47:33;-24166.66;;;12.52;55.29
7105;BME280;3594;42.152;24.714;2023-02-02T10:50:19;-24166.50;;;12.52;54.56
7105;BME280;3594;42.152;24.714;2023-02-02T10:52:51;-24156.25;;;12.15;52.66
7105;BME280;3594;42.152;24.714;2023-02-02T10:55:31;-24173.69;;;12.77;52.59
7105;BME280;3594;42.152;24.714;2023-02-02T11:00:53;-24177.06;;;12.90;51.17
7105;BME280;3594;42.152;24.714;2023-02-02T11:03:21;-24176.78;;;12.89;51.61
7105;BME280;3594;42.152;24.714;2023-02-02T11:05:47;-24177.63;;;12.92;50.22
7105;BME280;3594;42.152;24.714;2023-02-02T11:08:37;-24184.78;;;13.17;50.10
7105;BME280;3594;42.152;24.714;2023-02-02T11:11:40;-24180.84;;;13.03;49.22
7105;BME280;3594;42.152;24.714;2023-02-02T11:16:39;-24181.13;;;13.04;49.86
7105;BME280;3594;42.152;24.714;2023-02-02T11:21:50;-24188.03;;;13.29;48.54
7105;BME280;3594;42.152;24.714;2023-02-02T11:24:21;-24186.47;;;13.23;49.24
7105;BME280;3594;42.152;24.714;2023-02-02T11:29:40;-24191.13;;;13.40;48.86
7105;BME280;3594;42.152;24.714;2023-02-02T11:35:13;-24201.22;;;13.77;44.75
7105;BME280;3594;42.152;24.714;2023-02-02T11:37:52;-24189.00;;;13.33;46.44
7105;BME280;3594;42.152;24.714;2023-02-02T11:42:54;-24195.47;;;13.56;44.07
7105;BME280;3594;42.152;24.714;2023-02-02T11:48:13;-24191.25;;;13.41;44.19
7105;BME280;3594;42.152;24.714;2023-02-02T11:50:47;-24200.25;;;13.73;44.20
7105;BME280;3594;42.152;24.714;2023-02-02T11:56:08;-24199.53;;;13.70;42.13
7105;BME280;3594;42.152;24.714;2023-02-02T12:01:22;-24194.91;;;13.54;41.20
7105;BME280;3594;42.152;24.714;2023-02-02T12:03:48;-24203.03;;;13.83;41.16
7105;BME280;3594;42.152;24.714;2023-02-02T12:08:46;-24198.56;;;13.67;42.28
7105;BME280;3594;42.152;24.714;2023-02-02T12:11:23;-24194.91;;;13.54;42.84
7105;BME280;3594;42.152;24.714;2023-02-02T12:19:13;-24195.19;;;13.55;43.41
7105;BME280;3594;42.152;24.714;2023-02-02T12:24:37;-24194.75;;;13.53;43.12
7105;BME280;3594;42.152;24.714;2023-02-02T12:29:53;-24190.00;;;13.36;43.87
7105;BME280;3594;42.152;24.714;2023-02-02T12:32:38;-24180.84;;;13.03;44.38
7105;BME280;3594;42.152;24.714;2023-02-02T12:50:58;-24150.47;;;11.94;45.24
7105;BME280;3594;42.152;24.714;2023-02-02T12:59:21;-24160.03;;;12.28;44.39
7105;BME280;3594;42.152;24.714;2023-02-02T13:04:47;-24165.38;;;12.48;44.28
7105;BME280;3594;42.152;24.714;2023-02-02T13:12:49;-24153.28;;;12.04;43.92
7105;BME280;3594;42.152;24.714;2023-02-02T13:15:19;-24143.69;;;11.70;44.04
7105;BME280;3594;42.152;24.714;2023-02-02T13:17:50;-24152.44;;;12.01;44.47
7105;BME280;3594;42.152;24.714;2023-02-02T13:23:08;-24150.19;;;11.93;45.36
7105;BME280;3594;42.152;24.714;2023-02-02T13:25:46;-24152.16;;;12.00;44.30
7105;BME280;3594;42.152;24.714;2023-02-02T13:28:37;-24155.81;;;12.13;45.01
7105;BME280;3594;42.152;24.714;2023-02-02T13:31:10;-24154.13;;;12.07;45.91
7105;BME280;3594;42.152;24.714;2023-02-02T13:33:40;-24152.16;;;12.00;45.39
7105;BME280;3594;42.152;24.714;2023-02-02T13:36:13;-24154.81;;;12.10;45.84
7105;BME280;3594;42.152;24.714;2023-02-02T13:38:40;-24156.38;;;12.15;46.97
7105;BME280;3594;42.152;24.714;2023-02-02T13:41:09;-24159.63;;;12.27;45.10
7105;BME280;3594;42.152;24.714;2023-02-02T13:43:58;-24172.13;;;12.72;43.56
7105;BME280;3594;42.152;24.714;2023-02-02T13:47:01;-24174.94;;;12.82;42.96
7105;BME280;3594;42.152;24.714;2023-02-02T13:49:32;-24173.53;;;12.77;43.13
7105;BME280;3594;42.152;24.714;2023-02-02T13:58:53;-24168.63;;;12.59;41.26
7105;BME280;3594;42.152;24.714;2023-02-02T14:01:02;-24159.34;;;12.26;42.07
7105;BME280;3594;42.152;24.714;2023-02-02T14:03:41;-24140.88;;;11.60;51.69
7105;BME280;3594;42.152;24.714;2023-02-02T14:06:14;-24123.13;;;10.96;60.34
7105;BME280;3594;42.152;24.714;2023-02-02T14:08:57;-24109.59;;;10.47;66.99
7105;BME280;3594;42.152;24.714;2023-02-02T14:11:34;-24098.84;;;10.09;70.87
7105;BME280;3594;42.152;24.714;2023-02-02T14:14:20;-24088.69;;;9.72;74.26
7105;BME280;3594;42.152;24.714;2023-02-02T14:17:07;-24099.69;;;10.12;75.20
7105;BME280;3594;42.152;24.714;2023-02-02T14:25:02;-24098.84;;;10.09;74.22
7105;BME280;3594;42.152;24.714;2023-02-02T14:37:55;-24096.44;;;10.00;67.88
7105;BME280;3594;42.152;24.714;2023-02-02T14:53:30;-24101.69;;;10.19;76.45
7105;BME280;3594;42.152;24.714;2023-02-02T14:56:12;-24095.19;;;9.96;75.41
7105;BME280;3594;42.152;24.714;2023-02-02T14:58:40;-24101.97;;;10.20;78.02
7105;BME280;3594;42.152;24.714;2023-02-02T15:06:33;-24094.75;;;9.94;78.73
7105;BME280;3594;42.152;24.714;2023-02-02T15:14:56;-24090.09;;;9.77;79.73
7105;BME280;3594;42.152;24.714;2023-02-02T15:22:34;-24060.69;;;8.72;80.84
7105;BME280;3594;42.152;24.714;2023-02-02T15:25:12;-24065.22;;;8.88;82.02
7105;BME280;3594;42.152;24.714;2023-02-02T15:27:44;-24058.00;;;8.63;83.75
7105;BME280;3594;42.152;24.714;2023-02-02T15:30:15;-24063.53;;;8.82;86.16
7105;BME280;3594;42.152;24.714;2023-02-02T15:32:42;-24049.94;;;8.34;86.94
7105;BME280;3594;42.152;24.714;2023-02-02T15:35:19;-24055.75;;;8.55;86.85
7105;BME280;3594;42.152;24.714;2023-02-02T15:37:53;-24067.06;;;8.95;86.31
7105;BME280;3594;42.152;24.714;2023-02-02T15:40:23;-24060.41;;;8.71;86.55
7105;BME280;3594;42.152;24.714;2023-02-02T15:42:59;-24052.06;;;8.41;85.22
7105;BME280;3594;42.152;24.714;2023-02-02T15:45:43;-24058.44;;;8.64;86.24
7105;BME280;3594;42.152;24.714;2023-02-02T15:48:25;-24050.78;;;8.37;86.50
7105;BME280;3594;42.152;24.714;2023-02-02T15:50:55;-24052.06;;;8.41;88.30
7105;BME280;3594;42.152;24.714;2023-02-02T15:53:31;-24058.00;;;8.63;87.20
7105;BME280;3594;42.152;24.714;2023-02-02T15:55:57;-24042.44;;;8.07;88.14
7105;BME280;3594;42.152;24.714;2023-02-02T15:58:31;-24042.56;;;8.08;87.41
7105;BME280;3594;42.152;24.714;2023-02-02T16:01:03;-24050.06;;;8.34;87.14
7105;BME280;3594;42.152;24.714;2023-02-02T16:03:58;-24053.63;;;8.47;87.20
7105;BME280;3594;42.152;24.714;2023-02-02T16:06:28;-24041.16;;;8.03;87.42
7105;BME280;3594;42.152;24.714;2023-02-02T16:08:54;-24057.16;;;8.60;87.26
7105;BME280;3594;42.152;24.714;2023-02-02T16:11:21;-24047.38;;;8.25;86.83
7105;BME280;3594;42.152;24.714;2023-02-02T16:14:03;-24048.81;;;8.30;87.65
7105;BME280;3594;42.152;24.714;2023-02-02T16:16:32;-24038.88;;;7.94;87.77
7105;BME280;3594;42.152;24.714;2023-02-02T16:21:29;-24040.59;;;8.00;88.53
7105;BME280;3594;42.152;24.714;2023-02-02T16:23:56;-24025.00;;;7.45;98.60